Chewelah, Washington
Current Conditions -  °F | °C
As of 4:42 AM on Wednesday 26 Nov 2014 (Local Time) from KDEW Reporting Station
Haze Haze  
Wind Chill: 33°   Ceiling: 500
Heat Index: 33°   Visibility: 2.5mi
Dew Point: 32°   Wind: 0mph
Humidity: 96%   Direction: NA
Pressure: 30.17"   Gusts: NA
Location:  48.28°N, 117.72°W
Report Text: KDEW 261242Z AUTO 00000KT 2 1/2SM BR BKN005 OVC013 01/00 A3017 RMK AO2 T00060000
Loading
Personal Weather Stations






























Interactive Weather Map New forecast layout! Learn more

10-Day Weather Forecast

Advertisements
Track Severe Weather on mobile